Time;durP1;ratioP1;P1;durP2;ratioP2;P2;SDS_P1;SDS_P2;PMS_P1;PMS_P2;Temp;Humidity;BMP_temperature;BMP_pressure;BME280_temperature;BME280_humidity;BME280_pressure;Samples;Min_cycle;Max_cycle;Signal;HPM_P1;HPM_P2
2023/05/28 00:00:32;;;;;;;;;12.00;9.00;;;;;20.13;43.41;101391.50;5078439;27;45464;-41
2023/05/28 00:02:57;;;;;;;;;11.00;8.75;;;;;20.10;43.52;101391.03;5077940;28;45345;-42
2023/05/28 00:05:23;;;;;;;;;9.75;7.50;;;;;20.06;43.56;101393.31;5077869;27;45319;-43
2023/05/28 00:07:48;;;;;;;;;12.00;10.00;;;;;20.02;44.12;101392.03;5078117;27;45290;-42
2023/05/28 00:10:13;;;;;;;;;10.00;8.00;;;;;20.01;43.91;101392.22;5077682;27;45499;-42
2023/05/28 00:12:39;;;;;;;;;9.00;7.75;;;;;19.98;43.92;101387.22;5077531;27;45427;-42
2023/05/28 00:15:05;;;;;;;;;7.00;7.00;;;;;19.95;44.22;101393.81;5077753;27;45478;-42
2023/05/28 00:17:31;;;;;;;;;8.25;7.50;;;;;19.93;44.37;101393.16;5078295;27;45437;-43
2023/05/28 00:19:56;;;;;;;;;13.67;8.67;;;;;19.89;44.54;101384.63;5077733;27;46296;-42
2023/05/28 00:22:21;;;;;;;;;9.00;8.00;;;;;19.86;44.36;101389.59;5077824;27;45385;-42
2023/05/28 00:24:47;;;;;;;;;6.50;6.50;;;;;19.86;44.96;101386.88;5078237;27;45338;-42
2023/05/28 00:27:12;;;;;;;;;10.67;9.33;;;;;19.84;44.74;101391.63;5077941;27;45468;-43
2023/05/28 00:29:37;;;;;;;;;8.33;8.00;;;;;19.71;45.02;101368.03;5077954;27;46064;-44
2023/05/28 00:32:03;;;;;;;;;13.67;10.00;;;;;19.72;45.06;101366.16;5077613;27;45455;-43
2023/05/28 00:34:28;;;;;;;;;12.33;7.67;;;;;19.79;45.21;101383.28;5076439;28;45400;-42
2023/05/28 00:36:54;;;;;;;;;9.00;7.00;;;;;19.76;45.31;101386.34;5077851;27;45266;-43
2023/05/28 00:39:20;;;;;;;;;12.67;9.33;;;;;19.72;45.65;101382.34;5077363;27;45621;-43
2023/05/28 00:41:45;;;;;;;;;8.50;8.00;;;;;19.69;45.76;101381.72;5077531;27;45382;-44
2023/05/28 00:44:12;;;;;;;;;8.25;8.25;;;;;19.67;45.68;101377.53;5077611;27;45368;-43
2023/05/28 00:46:41;;;;;;;;;12.33;8.33;;;;;19.64;45.61;101381.47;5077696;27;45374;-42
2023/05/28 00:49:06;;;;;;;;;17.00;13.00;;;;;19.62;45.97;101379.97;5077328;27;45337;-43
2023/05/28 00:51:35;;;;;;;;;7.67;7.00;;;;;19.59;46.32;101383.00;5077276;27;45198;-42
2023/05/28 00:54:00;;;;;;;;;11.00;8.67;;;;;19.56;46.25;101384.25;5077580;27;45224;-43
2023/05/28 00:56:26;;;;;;;;;12.25;9.00;;;;;19.54;46.51;101386.28;5077532;28;45451;-43
2023/05/28 00:58:53;;;;;;;;;13.67;9.67;;;;;19.51;46.85;101380.44;5077173;27;47024;-42
2023/05/28 01:01:18;;;;;;;;;13.33;9.00;;;;;19.47;46.86;101381.81;5077403;27;45310;-42
2023/05/28 01:03:44;;;;;;;;;10.33;9.00;;;;;19.44;47.16;101393.84;5077534;27;45336;-42
2023/05/28 01:06:12;;;;;;;;;11.33;8.67;;;;;19.43;47.25;101394.88;5077656;27;45407;-43
2023/05/28 01:08:38;;;;;;;;;10.00;10.00;;;;;19.38;47.47;101386.50;5076947;27;45347;-43
2023/05/28 01:11:15;;;;;;;;;10.67;9.67;;;;;19.36;46.97;101396.66;5076857;27;45205;-43
2023/05/28 01:13:41;;;;;;;;;10.67;10.67;;;;;19.33;47.90;101395.16;5077027;27;45355;-43
2023/05/28 01:16:06;;;;;;;;;15.00;11.00;;;;;19.31;47.88;101399.09;5077093;27;45549;-43
2023/05/28 01:18:32;;;;;;;;;12.33;9.00;;;;;19.20;48.10;101398.53;5076795;27;45604;-44
2023/05/28 01:21:02;;;;;;;;;13.67;12.00;;;;;19.23;48.42;101401.88;5076957;27;45305;-43
2023/05/28 01:23:28;;;;;;;;;9.67;8.00;;;;;19.21;48.72;101396.66;5077076;27;45414;-44
2023/05/28 01:25:55;;;;;;;;;14.67;9.00;;;;;19.19;48.74;101401.44;5077098;27;45392;-42
2023/05/28 01:28:21;;;;;;;;;19.33;11.00;;;;;19.17;49.18;101392.66;5076489;27;46201;-44
2023/05/28 01:30:47;;;;;;;;;14.33;12.67;;;;;19.15;49.39;101397.44;5076904;27;45468;-42
2023/05/28 01:33:13;;;;;;;;;16.00;11.00;;;;;19.13;49.62;101399.47;5076955;27;45528;-44
2023/05/28 01:35:40;;;;;;;;;12.67;9.33;;;;;19.10;49.69;101405.25;5076937;27;45436;-43
2023/05/28 01:38:06;;;;;;;;;13.67;8.00;;;;;19.00;49.56;101383.09;5076527;27;46259;-41
2023/05/28 01:40:34;;;;;;;;;16.33;12.33;;;;;19.06;49.89;101407.47;5076618;27;45516;-42
2023/05/28 01:43:01;;;;;;;;;17.00;12.67;;;;;19.05;50.01;101404.97;5092310;27;45380;-42
2023/05/28 01:45:28;;;;;;;;;13.00;12.00;;;;;19.02;50.12;101403.47;5076796;27;45376;-41
2023/05/28 01:47:54;;;;;;;;;12.67;10.33;;;;;18.98;50.43;101407.56;5076468;27;46157;-42
2023/05/28 01:50:20;;;;;;;;;21.00;12.00;;;;;18.94;50.52;101400.88;5076431;27;45394;-42
2023/05/28 01:52:46;;;;;;;;;17.33;14.00;;;;;18.91;50.70;101403.94;5076785;27;45381;-43
2023/05/28 01:55:13;;;;;;;;;17.00;13.00;;;;;18.88;50.68;101405.16;5076897;27;45388;-42
2023/05/28 01:57:39;;;;;;;;;18.00;15.67;;;;;18.70;50.85;101373.16;5076193;27;46389;-43
2023/05/28 02:00:06;;;;;;;;;17.00;15.00;;;;;18.85;51.00;101399.28;5076222;27;45423;-42
2023/05/28 02:02:31;;;;;;;;;16.33;12.00;;;;;18.67;51.01;101373.50;5076007;27;45374;-42
2023/05/28 02:04:57;;;;;;;;;16.33;13.00;;;;;18.78;51.41;101391.09;5075401;28;45507;-41
2023/05/28 02:07:22;;;;;;;;;15.33;10.33;;;;;18.75;51.35;101388.78;5076124;27;47248;-41
2023/05/28 02:09:47;;;;;;;;;16.33;13.67;;;;;18.76;51.54;101395.00;5076320;27;45345;-42
2023/05/28 02:12:13;;;;;;;;;14.67;13.33;;;;;18.71;51.76;101392.88;5076119;27;45438;-43
2023/05/28 02:14:38;;;;;;;;;16.00;12.33;;;;;18.70;51.68;101407.34;5076579;27;45401;-42
2023/05/28 02:17:04;;;;;;;;;14.00;10.33;;;;;18.67;51.97;101403.16;5076261;27;45412;-43
2023/05/28 02:19:30;;;;;;;;;14.33;13.00;;;;;18.65;51.79;101409.72;5076103;28;45373;-42
2023/05/28 02:21:58;;;;;;;;;14.00;11.33;;;;;18.63;52.03;101401.84;5076380;27;45313;-43
2023/05/28 02:24:23;;;;;;;;;15.33;13.00;;;;;18.62;51.99;101407.38;5076592;27;45299;-42
2023/05/28 02:26:50;;;;;;;;;9.00;4.00;;;;;18.58;52.14;101408.78;5075874;27;47191;-46
2023/05/28 02:29:15;;;;;;;;;19.00;13.00;;;;;18.55;52.08;101407.31;5075847;27;45278;-43
2023/05/28 02:31:40;;;;;;;;;15.00;11.67;;;;;18.54;52.24;101411.03;5075909;27;45364;-42
2023/05/28 02:34:07;;;;;;;;;20.33;14.67;;;;;18.52;52.20;101407.66;5076013;27;45538;-43
2023/05/28 02:36:32;;;;;;;;;18.67;13.00;;;;;18.50;52.28;101409.72;5075896;27;46101;-41
2023/05/28 02:38:58;;;;;;;;;13.00;11.67;;;;;18.49;52.49;101402.63;5075994;27;45953;-43
2023/05/28 02:41:23;;;;;;;;;15.00;12.00;;;;;18.45;52.21;101404.00;5075947;27;45743;-45
2023/05/28 02:43:48;;;;;;;;;17.67;13.33;;;;;18.41;52.59;101403.56;5076017;27;45448;-46
2023/05/28 02:46:14;;;;;;;;;19.00;13.67;;;;;18.37;52.81;101404.94;5074340;28;48297;-42
2023/05/28 02:48:39;;;;;;;;;22.00;16.33;;;;;18.39;52.91;101415.53;5075553;27;45358;-43
2023/05/28 02:51:04;;;;;;;;;15.67;13.33;;;;;18.37;52.86;101409.47;5075876;27;45402;-43
2023/05/28 02:53:31;;;;;;;;;14.33;11.33;;;;;18.34;52.91;101405.31;5075763;27;45374;-42
2023/05/28 02:55:57;;;;;;;;;16.00;11.67;;;;;18.32;52.92;101401.94;5075490;27;46602;-43
2023/05/28 02:58:23;;;;;;;;;20.33;14.33;;;;;18.30;52.84;101397.78;5075334;27;45439;-42
2023/05/28 03:00:49;;;;;;;;;19.67;14.00;;;;;18.30;53.06;101401.31;5075752;27;45296;-42
2023/05/28 03:03:14;;;;;;;;;16.33;13.67;;;;;18.29;52.88;101396.94;5075929;27;45324;-44
2023/05/28 03:05:40;;;;;;;;;22.33;14.00;;;;;18.27;53.06;101398.13;5075373;27;47041;-42
2023/05/28 03:08:06;;;;;;;;;17.00;15.00;;;;;18.24;53.04;101396.63;5075687;27;45306;-42
2023/05/28 03:10:31;;;;;;;;;16.67;14.00;;;;;18.19;53.18;101402.56;5075592;27;45446;-43
2023/05/28 03:12:56;;;;;;;;;16.00;8.67;;;;;18.20;53.38;101404.25;5076131;27;45371;-41
2023/05/28 03:15:24;;;;;;;;;21.00;12.67;;;;;18.16;53.35;101397.53;5078923;27;46081;-42
2023/05/28 03:17:49;;;;;;;;;16.67;13.00;;;;;18.16;53.49;101394.84;5078883;27;46000;-41
2023/05/28 03:20:15;;;;;;;;;19.33;15.33;;;;;18.16;53.45;101397.53;5078949;27;45354;-40
2023/05/28 03:22:40;;;;;;;;;19.67;12.33;;;;;18.11;53.42;101397.22;5079285;27;45497;-41
2023/05/28 03:25:07;;;;;;;;;16.33;14.00;;;;;18.14;53.44;101407.66;5078858;27;46098;-42
2023/05/28 03:27:32;;;;;;;;;17.33;15.00;;;;;18.07;53.59;101393.22;5078756;27;45380;-42
2023/05/28 03:29:58;;;;;;;;;18.00;12.67;;;;;18.10;53.43;101395.56;5078788;27;45726;-41
2023/05/28 03:32:23;;;;;;;;;15.33;12.67;;;;;18.04;53.35;101388.22;5079070;27;45352;-41
2023/05/28 03:34:49;;;;;;;;;16.67;14.33;;;;;18.07;53.69;101395.91;5078651;27;45978;-42
2023/05/28 03:37:14;;;;;;;;;15.00;13.33;;;;;18.06;53.46;101393.41;5078739;27;45319;-43
2023/05/28 03:39:40;;;;;;;;;17.00;14.00;;;;;18.03;53.28;101402.66;5078761;27;45506;-43
2023/05/28 03:42:07;;;;;;;;;22.00;14.00;;;;;17.97;53.75;101384.56;5078292;27;45174;-43
2023/05/28 03:44:34;;;;;;;;;20.67;14.67;;;;;18.02;53.87;101405.56;5078157;27;47171;-43
2023/05/28 03:46:59;;;;;;;;;18.67;12.67;;;;;17.98;53.71;101409.63;5078367;27;45405;-46
2023/05/28 03:49:25;;;;;;;;;17.00;15.00;;;;;17.94;53.97;101398.38;5078722;27;45324;-43
2023/05/28 03:51:50;;;;;;;;;21.33;16.00;;;;;17.93;54.16;101399.38;5078502;27;45393;-43
2023/05/28 03:54:15;;;;;;;;;22.00;14.00;;;;;17.89;54.19;101396.22;5078401;27;45412;-44
2023/05/28 03:56:41;;;;;;;;;23.00;18.00;;;;;17.88;54.39;101401.78;5078287;27;45465;-43
2023/05/28 03:59:06;;;;;;;;;17.00;14.00;;;;;17.85;54.22;101399.44;5078192;27;45752;-43
2023/05/28 04:01:34;;;;;;;;;18.00;14.00;;;;;17.82;54.44;101400.63;5078733;27;45312;-42
2023/05/28 04:03:59;;;;;;;;;15.67;14.00;;;;;17.80;54.59;101402.66;5078368;27;45378;-43
2023/05/28 04:06:24;;;;;;;;;18.67;15.00;;;;;17.60;54.53;101372.66;5078043;27;45220;-43
2023/05/28 04:08:50;;;;;;;;;20.33;16.67;;;;;17.73;54.43;101404.34;5078446;27;45456;-44
2023/05/28 04:11:15;;;;;;;;;17.00;13.00;;;;;17.74;54.74;101405.19;5078626;27;45316;-43
2023/05/28 04:13:40;;;;;;;;;13.33;12.33;;;;;17.73;54.73;101409.75;5077653;27;46322;-42
2023/05/28 04:16:07;;;;;;;;;15.00;11.00;;;;;17.69;54.51;101411.09;5078061;27;45282;-41
2023/05/28 04:18:32;;;;;;;;;22.67;15.00;;;;;17.69;54.59;101409.25;5078252;27;45328;-42
2023/05/28 04:20:57;;;;;;;;;20.00;12.00;;;;;17.56;54.65;101392.03;5078476;27;45509;-41
2023/05/28 04:23:23;;;;;;;;;28.00;17.67;;;;;17.68;54.66;101417.50;5077534;27;46926;-42
2023/05/28 04:25:50;;;;;;;;;20.33;16.33;;;;;17.67;54.74;101411.28;5077868;27;45312;-42
2023/05/28 04:28:16;;;;;;;;;25.00;16.33;;;;;17.66;54.87;101411.47;5077936;27;45381;-43
2023/05/28 04:30:41;;;;;;;;;21.33;15.33;;;;;17.64;55.15;101410.81;5078130;27;45379;-43
2023/05/28 04:33:06;;;;;;;;;23.00;16.00;;;;;17.63;55.15;101412.66;5077451;27;46589;-41
2023/05/28 04:35:32;;;;;;;;;24.67;20.00;;;;;17.64;54.84;101418.88;5077655;27;45411;-43
2023/05/28 04:37:59;;;;;;;;;54.67;37.00;;;;;17.59;54.84;101414.03;5077858;27;45320;-43
2023/05/28 04:40:24;;;;;;;;;18.00;15.33;;;;;17.47;55.01;101396.59;5077794;27;45422;-42
2023/05/28 04:42:53;;;;;;;;;20.00;16.67;;;;;17.59;54.82;101419.41;5077361;27;45555;-42
2023/05/28 04:45:20;;;;;;;;;25.33;18.00;;;;;17.58;55.11;101425.81;5077345;27;45292;-43
2023/05/28 04:47:45;;;;;;;;;20.00;14.67;;;;;17.54;55.10;101423.66;5077651;27;45264;-43
2023/05/28 04:50:11;;;;;;;;;16.00;12.33;;;;;17.57;55.01;101426.84;5077699;27;45425;-42
2023/05/28 04:52:37;;;;;;;;;25.33;15.67;;;;;17.56;55.33;101429.69;5077259;27;45455;-42
2023/05/28 04:55:06;;;;;;;;;19.67;14.00;;;;;17.57;55.35;101428.66;5077338;27;45887;-43
2023/05/28 04:57:32;;;;;;;;;22.67;18.00;;;;;17.57;55.08;101429.53;5077479;27;45327;-41
2023/05/28 04:59:58;;;;;;;;;22.00;15.33;;;;;17.56;55.11;101432.38;5077633;27;45253;-42
2023/05/28 05:02:24;;;;;;;;;17.67;12.67;;;;;17.59;55.06;101429.34;5077020;27;45369;-43
2023/05/28 05:04:49;;;;;;;;;18.67;15.33;;;;;17.57;55.20;101421.44;5077296;27;45368;-41
2023/05/28 05:07:15;;;;;;;;;19.00;15.67;;;;;17.60;55.04;101423.78;5077312;27;45441;-42
2023/05/28 05:09:40;;;;;;;;;23.33;18.00;;;;;17.60;55.35;101422.94;5077392;27;45506;-43
2023/05/28 05:12:07;;;;;;;;;22.33;19.33;;;;;17.61;55.41;101424.59;5076909;27;45843;-42
2023/05/28 05:14:35;;;;;;;;;25.33;17.67;;;;;17.64;54.96;101422.41;5076885;27;45476;-43
2023/05/28 05:17:02;;;;;;;;;25.67;18.33;;;;;17.65;55.20;101429.44;5076932;27;45267;-42
2023/05/28 05:19:27;;;;;;;;;19.00;14.00;;;;;17.66;55.41;101441.09;5077157;27;45368;-41
2023/05/28 05:21:53;;;;;;;;;17.00;15.33;;;;;17.62;55.16;101427.13;5075623;28;47219;-42
2023/05/28 05:24:18;;;;;;;;;23.67;15.00;;;;;17.70;55.33;101437.84;5077011;27;45363;-42
2023/05/28 05:26:44;;;;;;;;;26.67;17.33;;;;;17.73;55.35;101441.19;5076941;27;45336;-42
2023/05/28 05:29:09;;;;;;;;;20.00;18.00;;;;;17.75;55.11;101437.34;5077401;27;45565;-40
2023/05/28 05:31:35;;;;;;;;;25.67;18.33;;;;;17.74;55.01;101430.31;5075919;27;46112;-43
2023/05/28 05:34:00;;;;;;;;;19.00;17.00;;;;;17.79;54.73;101437.84;5110132;27;45433;-41
2023/05/28 05:36:26;;;;;;;;;19.00;14.33;;;;;17.77;54.63;101435.31;5075928;27;45375;-42
2023/05/28 05:38:51;;;;;;;;;21.67;19.33;;;;;17.75;54.47;101433.84;5077015;27;45442;-42
2023/05/28 05:41:16;;;;;;;;;15.67;14.00;;;;;17.79;54.80;101443.22;5075426;28;46012;-43
2023/05/28 05:43:42;;;;;;;;;22.67;17.00;;;;;17.79;54.57;101427.91;5076492;27;45501;-43
2023/05/28 05:46:07;;;;;;;;;20.33;17.67;;;;;17.85;54.76;101439.81;5075594;28;45435;-42
2023/05/28 05:48:33;;;;;;;;;18.00;14.67;;;;;17.88;54.79;101436.78;5076868;27;45954;-42
2023/05/28 05:51:00;;;;;;;;;19.00;16.33;;;;;17.91;54.37;101452.59;5075190;28;46876;-41
2023/05/28 05:53:26;;;;;;;;;21.00;17.00;;;;;17.93;54.28;101451.38;5076384;27;45167;-43
2023/05/28 05:55:51;;;;;;;;;21.67;17.67;;;;;17.97;54.26;101440.25;5076415;27;45216;-41
2023/05/28 05:58:17;;;;;;;;;21.33;14.67;;;;;18.01;54.35;101447.78;5076855;27;45452;-42
2023/05/28 06:00:43;;;;;;;;;19.33;18.00;;;;;18.03;54.12;101440.34;5076085;27;46046;-41
2023/05/28 06:03:09;;;;;;;;;18.67;16.67;;;;;18.07;54.47;101441.69;5076137;27;45467;-43
2023/05/28 06:05:35;;;;;;;;;16.00;15.33;;;;;18.12;54.42;101433.09;5076462;27;45336;-44
2023/05/28 06:08:02;;;;;;;;;19.00;15.33;;;;;18.15;54.00;101438.94;5076745;27;45318;-42
2023/05/28 06:10:29;;;;;;;;;22.00;18.00;;;;;18.19;53.97;101442.94;5076034;28;46123;-46
2023/05/28 06:12:54;;;;;;;;;26.00;18.33;;;;;18.22;54.03;101433.69;5075877;27;45327;-43
2023/05/28 06:15:21;;;;;;;;;16.33;15.33;;;;;18.23;53.92;101424.56;5075850;27;45164;-45
2023/05/28 06:17:47;;;;;;;;;19.67;15.67;;;;;18.33;53.81;101430.56;5076520;27;45518;-48
2023/05/28 06:20:13;;;;;;;;;20.00;14.33;;;;;18.39;53.64;101429.84;5075753;27;46221;-46
2023/05/28 06:22:39;;;;;;;;;21.00;15.00;;;;;18.49;53.97;101443.03;5075711;27;45450;-46
2023/05/28 06:25:06;;;;;;;;;23.33;19.00;;;;;18.59;53.78;101440.94;5076222;28;45422;-46
2023/05/28 06:27:32;;;;;;;;;23.00;16.00;;;;;18.70;53.40;101437.00;5076253;27;45422;-44
2023/05/28 06:29:57;;;;;;;;;18.33;16.00;;;;;18.78;53.12;101436.91;5075839;27;46407;-43
2023/05/28 06:32:23;;;;;;;;;21.67;15.00;;;;;18.78;52.94;101414.53;5075878;27;45386;-44
2023/05/28 06:34:48;;;;;;;;;19.67;17.00;;;;;18.99;52.17;101435.34;5076254;28;45361;-48
2023/05/28 06:37:13;;;;;;;;;21.67;18.00;;;;;19.10;51.75;101427.66;5076380;27;45452;-42
2023/05/28 06:39:39;;;;;;;;;20.33;18.67;;;;;19.17;51.65;101428.59;5075232;27;46479;-44
2023/05/28 06:42:05;;;;;;;;;20.67;17.00;;;;;19.50;51.65;101430.03;5075599;27;45421;-43
2023/05/28 06:44:31;;;;;;;;;18.33;15.67;;;;;20.42;50.25;101428.34;5075273;27;45537;-42
2023/05/28 06:46:56;;;;;;;;;19.00;16.33;;;;;21.92;47.20;101418.81;5076520;27;45254;-40
2023/05/28 06:49:21;;;;;;;;;17.00;13.00;;;;;23.33;44.14;101429.41;5078788;27;45317;-43
2023/05/28 06:51:47;;;;;;;;;46.00;36.33;;;;;24.48;42.24;101429.41;5078780;27;45778;-43
2023/05/28 06:54:12;;;;;;;;;31.67;28.67;;;;;25.68;39.81;101428.97;5078906;27;45300;-41
2023/05/28 06:56:38;;;;;;;;;19.50;16.25;;;;;26.65;37.58;101418.72;5079452;27;45491;-40
2023/05/28 06:59:03;;;;;;;;;25.00;18.50;;;;;27.46;36.26;101418.84;5079235;27;46426;-47
2023/05/28 07:01:28;;;;;;;;;19.75;15.25;;;;;28.25;34.49;101416.25;5078973;27;45484;-40
2023/05/28 07:03:54;;;;;;;;;19.50;13.75;;;;;28.88;33.48;101411.50;5079302;27;45454;-41
2023/05/28 07:06:19;;;;;;;;;19.75;14.75;;;;;29.58;33.28;101424.47;5084139;27;45537;-40
2023/05/28 07:08:45;;;;;;;;;19.50;13.75;;;;;30.15;31.30;101412.19;5099638;27;46175;-43
2023/05/28 07:11:12;;;;;;;;;17.60;14.60;;;;;30.59;30.13;101412.78;5099418;27;45430;-41
2023/05/28 07:13:38;;;;;;;;;16.80;14.40;;;;;30.99;30.07;101416.94;5099168;27;45396;-43
2023/05/28 07:16:04;;;;;;;;;19.40;14.60;;;;;31.34;29.49;101418.19;5099618;27;45442;-41
2023/05/28 07:18:29;;;;;;;;;18.50;12.25;;;;;31.83;29.27;101420.53;5098828;27;46300;-41
2023/05/28 07:20:55;;;;;;;;;21.25;15.50;;;;;32.19;28.62;101421.41;5099328;27;45212;-44
2023/05/28 07:23:20;;;;;;;;;17.50;15.50;;;;;32.58;28.32;101413.44;5099175;27;45323;-44
2023/05/28 07:25:46;;;;;;;;;14.50;14.50;;;;;33.02;27.03;101423.81;5099896;27;45319;-44
2023/05/28 07:28:11;;;;;;;;;16.25;13.75;;;;;33.33;26.92;101421.75;5099141;27;45897;-42
2023/05/28 07:30:36;;;;;;;;;16.75;13.00;;;;;33.65;26.70;101421.34;5099084;27;45318;-44
2023/05/28 07:33:02;;;;;;;;;16.00;15.00;;;;;33.95;25.72;101414.78;5099447;27;45330;-43
2023/05/28 07:35:27;;;;;;;;;19.75;13.25;;;;;34.23;25.95;101420.69;5099435;27;45336;-43
2023/05/28 07:37:53;;;;;;;;;18.50;15.00;;;;;34.49;25.73;101404.75;5099089;27;45361;-42
2023/05/28 07:40:18;;;;;;;;;15.50;11.75;;;;;34.75;24.61;101413.56;5098846;27;45559;-42
2023/05/28 07:42:44;;;;;;;;;15.25;14.25;;;;;34.92;24.47;101413.13;5099345;27;45281;-42
2023/05/28 07:45:09;;;;;;;;;15.50;11.75;;;;;35.18;24.21;101410.88;5099282;27;45419;-42
2023/05/28 07:47:35;;;;;;;;;15.00;12.50;;;;;35.47;23.68;101417.16;5099035;27;45946;-42
2023/05/28 07:50:01;;;;;;;;;13.25;11.00;;;;;35.65;23.96;101423.00;5098945;27;45485;-43
2023/05/28 07:52:29;;;;;;;;;15.00;14.75;;;;;35.92;23.45;101408.47;5099049;27;45368;-42
2023/05/28 07:54:56;;;;;;;;;14.60;11.20;;;;;36.17;23.44;101415.56;5099331;27;45356;-42
2023/05/28 07:57:22;;;;;;;;;11.00;11.00;;;;;36.42;23.26;101398.50;5098666;27;46895;-42
2023/05/28 07:59:47;;;;;;;;;14.00;11.75;;;;;36.65;22.86;101406.97;5097914;27;45430;-40
2023/05/28 08:02:13;;;;;;;;;15.25;12.25;;;;;36.82;22.62;101403.59;5098691;27;45343;-42
2023/05/28 08:04:39;;;;;;;;;17.25;12.00;;;;;36.99;22.16;101403.00;5098988;27;45379;-40
2023/05/28 08:07:05;;;;;;;;;13.00;10.80;;;;;37.27;21.72;101412.94;5098610;27;46344;-42
2023/05/28 08:09:30;;;;;;;;;11.25;10.25;;;;;37.47;21.47;101402.56;5098528;27;45430;-43
2023/05/28 08:11:56;;;;;;;;;14.00;10.00;;;;;37.73;21.94;101391.69;5098610;27;45433;-45
2023/05/28 08:14:21;;;;;;;;;17.50;13.00;;;;;38.05;21.55;101390.63;5114634;27;45542;-43
2023/05/28 08:16:47;;;;;;;;;11.00;9.50;;;;;38.37;21.45;101395.91;5098303;27;45430;-43
2023/05/28 08:19:12;;;;;;;;;14.75;11.75;;;;;38.63;20.88;101398.81;5098480;27;45407;-41
2023/05/28 08:21:37;;;;;;;;;16.00;11.75;;;;;38.70;20.78;101395.59;5098436;27;45469;-41
2023/05/28 08:24:03;;;;;;;;;14.50;11.50;;;;;38.80;20.72;101391.72;5098338;27;45477;-42
2023/05/28 08:26:28;;;;;;;;;14.75;10.50;;;;;38.92;20.33;101401.09;5097610;27;45470;-41
2023/05/28 08:28:53;;;;;;;;;11.50;10.00;;;;;39.09;20.62;101396.72;5096750;27;45399;-41
2023/05/28 08:31:19;;;;;;;;;12.75;10.00;;;;;39.17;20.65;101395.91;5098107;27;45291;-43
2023/05/28 08:33:44;;;;;;;;;12.00;10.00;;;;;39.30;20.37;101385.81;5098278;27;45399;-41
2023/05/28 08:36:10;;;;;;;;;13.75;9.00;;;;;39.28;19.71;101385.34;5097851;27;46877;-42
2023/05/28 08:38:36;;;;;;;;;12.50;10.75;;;;;39.31;19.74;101379.91;5097961;27;45371;-41
2023/05/28 08:41:01;;;;;;;;;10.75;10.00;;;;;39.52;19.57;101388.44;5098049;27;45261;-42
2023/05/28 08:43:27;;;;;;;;;15.50;9.00;;;;;39.67;19.68;101385.19;5079897;27;45400;-42
2023/05/28 08:45:53;;;;;;;;;13.40;11.20;;;;;39.81;19.18;101379.44;5097583;27;47315;-43
2023/05/28 08:48:21;;;;;;;;;11.40;9.60;;;;;40.00;19.56;101379.09;5097805;27;45332;-43
2023/05/28 08:50:49;;;;;;;;;10.80;9.40;;;;;40.17;19.25;101375.47;5097911;27;45387;-43
2023/05/28 08:53:20;;;;;;;;;12.00;8.60;;;;;40.33;19.05;101372.97;5097843;27;45328;-41
2023/05/28 08:55:46;;;;;;;;;10.20;8.60;;;;;40.40;19.21;101373.25;5097458;27;46242;-41
2023/05/28 08:58:12;;;;;;;;;16.00;9.75;;;;;40.59;19.02;101381.28;5097580;27;45371;-41
2023/05/28 09:00:38;;;;;;;;;10.00;9.80;;;;;40.71;18.80;101375.81;5097639;27;45393;-42
2023/05/28 09:03:07;;;;;;;;;9.75;8.75;;;;;40.72;18.31;101369.06;5098108;27;45721;-41
2023/05/28 09:05:36;;;;;;;;;10.40;10.00;;;;;40.70;18.81;101368.56;5098324;27;45403;-44
2023/05/28 09:08:03;;;;;;;;;12.00;9.80;;;;;40.67;18.64;101372.03;5097382;27;45513;-41
2023/05/28 09:10:29;;;;;;;;;10.60;9.00;;;;;40.67;18.55;101362.84;5098008;27;45391;-41
2023/05/28 09:12:59;;;;;;;;;11.00;10.00;;;;;40.75;19.14;101359.19;5097621;27;45537;-42
2023/05/28 09:15:24;;;;;;;;;12.00;11.40;;;;;40.83;19.01;101364.72;5097437;27;46218;-42
2023/05/28 09:17:50;;;;;;;;;10.75;9.75;;;;;40.96;18.51;101359.22;5097418;27;45430;-41
2023/05/28 09:20:15;;;;;;;;;12.50;10.50;;;;;40.99;18.94;101366.97;5097942;27;45461;-42
2023/05/28 09:22:43;;;;;;;;;13.50;10.50;;;;;41.12;18.42;101357.50;5097944;27;45448;-41
2023/05/28 09:25:08;;;;;;;;;12.40;8.00;;;;;41.26;18.64;101360.06;5097409;27;47074;-41
2023/05/28 09:27:36;;;;;;;;;11.75;10.75;;;;;41.38;18.62;101355.38;5097515;27;45322;-41
2023/05/28 09:30:07;;;;;;;;;10.20;10.00;;;;;41.49;18.16;101360.53;5097502;27;45356;-42
2023/05/28 09:32:34;;;;;;;;;11.60;8.00;;;;;41.49;18.27;101357.75;5097489;27;45308;-42
2023/05/28 09:35:00;;;;;;;;;11.60;9.00;;;;;41.46;18.34;101345.28;5095944;27;47381;-42
2023/05/28 09:37:28;;;;;;;;;12.00;10.75;;;;;41.36;18.14;101343.69;5097231;27;45242;-43
2023/05/28 09:40:01;;;;;;;;;7.00;6.40;;;;;41.38;18.21;101348.91;5097620;27;45483;-44
2023/05/28 09:42:33;;;;;;;;;8.80;6.80;;;;;41.19;17.73;101327.09;5097435;27;45446;-41
2023/05/28 09:45:00;;;;;;;;;7.80;6.40;;;;;41.27;18.17;101345.75;5097193;27;45440;-42
2023/05/28 09:47:25;;;;;;;;;8.60;8.60;;;;;41.27;18.32;101339.34;5096986;27;45269;-41
2023/05/28 09:49:50;;;;;;;;;7.00;7.00;;;;;41.27;18.36;101336.56;5097311;27;45224;-41
2023/05/28 09:52:20;;;;;;;;;12.50;10.00;;;;;41.32;18.46;101336.34;5096074;27;45295;-41
2023/05/28 09:54:51;;;;;;;;;7.40;6.20;;;;;41.27;18.03;101340.16;5096911;27;46968;-42
2023/05/28 09:57:21;;;;;;;;;8.80;7.60;;;;;41.20;17.74;101339.06;5096934;27;45453;-46
2023/05/28 09:59:53;;;;;;;;;9.00;7.00;;;;;41.16;17.63;101338.09;5097224;27;45424;-41
2023/05/28 10:02:38;;;;;;;;;8.40;8.00;;;;;40.96;17.95;101334.09;5097130;27;45379;-43
2023/05/28 10:05:07;;;;;;;;;10.80;7.80;;;;;40.79;17.69;101326.66;5096674;27;46951;-42
2023/05/28 10:07:34;;;;;;;;;8.40;8.00;;;;;40.75;17.47;101334.91;5096796;27;45406;-42
2023/05/28 10:10:01;;;;;;;;;10.00;8.00;;;;;40.57;17.73;101314.66;5096729;27;45436;-42
2023/05/28 10:12:29;;;;;;;;;8.60;7.60;;;;;40.34;18.08;101330.81;5095314;27;45474;-41
2023/05/28 10:14:56;;;;;;;;;7.60;6.60;;;;;39.99;17.75;101332.03;5096566;27;46370;-43
2023/05/28 10:17:21;;;;;;;;;10.80;5.80;;;;;39.75;17.57;101339.00;5096262;27;45390;-40
2023/05/28 10:19:47;;;;;;;;;7.00;7.00;;;;;39.27;18.18;101314.91;5097048;27;45437;-40
2023/05/28 10:22:14;;;;;;;;;13.00;10.40;;;;;39.08;18.06;101322.75;5096262;27;45648;-43
2023/05/28 10:24:40;;;;;;;;;11.80;8.20;;;;;38.79;18.79;101329.72;5096287;27;46618;-41
2023/05/28 10:27:09;;;;;;;;;11.40;9.80;;;;;38.40;19.00;101325.81;5096490;27;45315;-41
2023/05/28 10:29:41;;;;;;;;;8.80;7.40;;;;;38.02;19.32;101328.19;5096545;27;45455;-41
2023/05/28 10:32:07;;;;;;;;;8.20;8.00;;;;;37.62;19.52;101327.25;5096526;27;45265;-40
2023/05/28 10:34:36;;;;;;;;;6.75;6.50;;;;;37.17;20.21;101325.22;5096290;27;45395;-40
2023/05/28 10:37:09;;;;;;;;;8.80;8.00;;;;;36.85;20.22;101326.16;5096151;27;45400;-41
2023/05/28 10:39:47;;;;;;;;;8.00;6.00;;;;;36.35;20.21;101301.09;5096482;27;45391;-42
2023/05/28 10:42:15;;;;;;;;;10.60;7.00;;;;;36.26;20.43;101319.56;5096455;27;45530;-40
2023/05/28 10:44:59;;;;;;;;;7.80;6.60;;;;;35.94;20.58;101326.75;5095888;27;46183;-41
2023/05/28 10:47:38;;;;;;;;;11.40;8.80;;;;;35.63;20.52;101317.31;5096086;27;45344;-39
2023/05/28 10:50:17;;;;;;;;;6.40;5.20;;;;;35.34;20.75;101323.00;5096249;27;45293;-41
2023/05/28 10:52:42;;;;;;;;;7.80;5.60;;;;;35.02;21.18;101312.66;5096330;27;45926;-40
2023/05/28 10:55:10;;;;;;;;;7.50;6.50;;;;;34.77;20.95;101314.63;5096229;27;46033;-41
2023/05/28 10:58:06;;;;;;;;;6.80;6.00;;;;;34.41;21.23;101311.41;5096031;27;45257;-41
2023/05/28 11:00:40;;;;;;;;;7.20;7.20;;;;;34.05;22.36;101314.56;5095989;27;45387;-40
2023/05/28 11:03:06;;;;;;;;;5.40;5.40;;;;;33.62;22.91;101327.28;5096243;27;45426;-40
2023/05/28 11:05:31;;;;;;;;;6.00;6.00;;;;;33.09;22.61;101319.63;5095869;27;46129;-41
2023/05/28 11:07:57;;;;;;;;;2.00;2.00;;;;;32.57;23.65;101314.56;5096236;27;45390;-41